Aynor, SC

4:45 AM EDT on October 26, 2014 (GMT -0400)
Cool Springs, SC | Change Station
CLOSE
Current Station
Personal Weather Station
Location: Aynor, SC
Elevation: 85 ft
Nearby Weather Stations

Elev 85 ft 33.98 °N, 79.13 °W | Updated 1 second ago

Clear
Clear
47.7 °F
Feels Like 48 °F
N
0.0
Wind Variable Wind from North
Gusts 0.0 mph

Today
High -- | Low -- °F
--% Chance of Precip.
Yesterday
High -- | Low -- °F
Precip. -- in
7:30 AM 6:30 PM
Waxing Crescent, 6% visible
Pressure 29.89 in
Visibility 7.0 miles
Clouds Clear
Windchill 48 °F
Dew Point 47 °F
Humidity 96%
Rainfall 0.00 in
Snow Depth Not available.
UV 0 out of 12
Pollen 3.50 out of 12
Air Quality Not available.
Flu Activity Sporadic
METAR KHYW 260835Z AUTO 00000KT 7SM CLR 08/08 A2989 RMK AO2

More Conditions Fewer Conditions

Pressure 29.89 in
Visibility 7.0 miles
Clouds Clear
Windchill 48 °F
Dew Point 47 °F
Humidity 96%
Rainfall 0.00 in
Snow Depth Not available.
UV 0 out of 12
Pollen 3.50 out of 12
Air Quality Not available.
Flu Activity Sporadic
METAR KHYW 260835Z AUTO 00000KT 7SM CLR 08/08 A2989 RMK AO2

More Conditions Fewer Conditions

10-Day Weather Forecast

Almanac

Astronomy

Oct. 26, 2014 Rise Set
Actual Time 7:30 AM EDT 6:30 PM EDT
Civil Twilight 7:05 AM EDT 6:55 PM EDT
Nautical Twilight 6:36 AM EDT 7:24 PM EDT
Astronomical Twilight 6:06 AM EDT 7:53 PM EDT
Moon 10:02 AM EDT 8:45 PM EDT
Length of Visible Light 11h 50m
Length of Day
10h 59m
Tomorrow will be 1m 56s shorter.
Waxing Crescent, 6% of the Moon is Illuminated
Today
Waxing Crescent
Oct 30
First Quarter
Nov 6
Full
Nov 14
Last Quarter
Nov 22
New

Today's Extremes

State Highs State Lows

Community

WunderPhotos

Upload Photos

1,765,127 photos uploaded!

Nearby

Snow Depth

Station Depth Elevation
No new snow has been reported.

Earthquake Activity

City Distance Mag. Time & Date
No recent earthquake activity has been reported nearby.
Minimum magnitude displayed is 2.5.

Coastal Water Temperatures

Place Temperature
Springmaid Pier, SC 68.0 °F

Nearby Weather Stations